createdAt,value
2023-01-28T03:39:45.907Z,24.29
2023-01-28T03:41:45.850Z,24.31
2023-01-28T03:42:45.836Z,24.29
2023-01-28T03:43:45.798Z,24.31
2023-01-28T03:44:45.763Z,24.30
2023-01-28T03:45:45.756Z,24.32
2023-01-28T03:46:45.702Z,24.33
2023-01-28T03:47:45.674Z,24.30
2023-01-28T03:48:45.696Z,24.31
2023-01-28T03:49:45.624Z,24.32
2023-01-28T03:50:45.630Z,24.32
2023-01-28T03:51:45.570Z,24.34
2023-01-28T03:52:45.536Z,24.32
2023-01-28T03:53:45.549Z,24.34
2023-01-28T03:54:45.492Z,24.32
2023-01-28T03:55:45.480Z,24.37
2023-01-28T03:56:45.445Z,24.34
2023-01-28T03:57:45.412Z,24.35
2023-01-28T03:58:45.402Z,24.35
2023-01-28T03:59:45.437Z,24.35
2023-01-28T04:00:45.320Z,24.37
2023-01-28T04:01:45.361Z,24.36
2023-01-28T04:02:45.283Z,24.38
2023-01-28T04:03:45.268Z,24.38
2023-01-28T04:04:45.227Z,24.38
2023-01-28T04:05:45.191Z,24.39
2023-01-28T04:06:45.167Z,24.36
2023-01-28T04:07:45.160Z,24.38
2023-01-28T04:08:45.184Z,24.39
2023-01-28T04:09:45.102Z,24.37
2023-01-28T04:10:45.058Z,24.41
2023-01-28T04:11:45.047Z,24.37
2023-01-28T04:12:45.008Z,24.40
2023-01-28T04:13:44.982Z,24.39
2023-01-28T04:14:44.939Z,24.39
2023-01-28T04:15:44.955Z,24.40
2023-01-28T04:16:44.901Z,24.42
2023-01-28T04:17:44.894Z,24.41
2023-01-28T04:18:44.863Z,24.43
2023-01-28T04:19:44.864Z,24.42
2023-01-28T04:20:44.820Z,24.42
2023-01-28T04:21:44.800Z,24.42
2023-01-28T04:22:44.750Z,24.45
2023-01-28T04:23:44.711Z,24.44
2023-01-28T04:24:44.689Z,24.46
2023-01-28T04:25:44.679Z,24.45
2023-01-28T10:22:34.859Z,24.69
2023-01-28T10:23:34.813Z,24.69
2023-01-28T10:24:34.852Z,24.66
2023-01-28T10:25:34.760Z,24.67
2023-01-28T10:26:34.703Z,24.64
2023-01-28T10:27:34.686Z,24.60
2023-01-28T11:22:32.729Z,23.70
2023-01-28T11:23:32.690Z,23.69
2023-01-28T11:24:32.733Z,23.69
2023-01-28T11:25:32.593Z,23.68
2023-01-28T11:26:32.569Z,23.68
2023-01-28T11:27:32.512Z,23.71
2023-01-28T11:28:32.485Z,23.69
2023-01-28T11:29:32.431Z,23.73
2023-01-28T11:30:32.462Z,23.75
2023-01-28T11:31:32.363Z,23.73
2023-01-28T11:32:32.339Z,23.76
2023-01-28T11:33:32.262Z,23.73
2023-01-28T11:34:32.319Z,23.72
2023-01-28T11:35:32.232Z,23.69
2023-01-28T11:36:32.219Z,23.74
2023-01-28T11:37:32.163Z,23.76
2023-01-28T11:38:32.126Z,23.73
2023-01-28T11:39:32.039Z,23.72
2023-01-28T11:40:31.974Z,23.71
2023-01-28T11:41:31.932Z,23.73
2023-01-28T11:42:31.905Z,23.76
2023-01-28T11:43:31.849Z,23.76
2023-01-28T11:44:31.794Z,23.73
2023-01-28T11:45:31.793Z,23.68
2023-01-28T11:46:31.736Z,23.66
2023-01-28T11:47:31.655Z,23.62
2023-01-28T11:48:31.608Z,23.59
2023-01-28T11:49:31.570Z,23.58
2023-01-28T11:50:31.516Z,23.56
2023-01-28T11:51:31.483Z,23.54
2023-01-28T11:52:48.670Z,23.54
2023-01-28T11:54:31.350Z,23.65
2023-01-28T11:55:31.306Z,23.61
2023-01-28T11:56:31.269Z,23.59
2023-01-28T11:57:31.218Z,23.58
2023-01-28T11:58:31.191Z,23.61
2023-01-28T11:59:31.151Z,23.61
2023-01-28T12:00:31.079Z,23.60
2023-01-28T12:01:31.096Z,23.55
2023-01-28T12:02:31.049Z,23.52
2023-01-28T12:03:30.949Z,23.49
2023-01-28T12:04:30.951Z,23.46
2023-01-28T12:05:30.859Z,23.42
2023-01-28T12:06:30.814Z,23.48
2023-01-28T12:07:30.771Z,23.49
2023-01-28T12:08:30.701Z,23.47
2023-01-28T12:09:30.695Z,23.46
2023-01-28T12:10:30.632Z,23.44
2023-01-28T12:11:30.617Z,23.43
2023-01-28T12:12:30.533Z,23.43
2023-01-28T12:13:30.482Z,23.38
2023-01-28T12:14:30.428Z,23.37
2023-01-28T12:15:30.371Z,23.37
2023-01-28T12:16:30.363Z,23.46
2023-01-28T12:17:30.322Z,23.49
2023-01-28T12:18:30.241Z,23.51
2023-01-28T12:19:30.227Z,23.55
2023-01-28T12:20:30.160Z,23.57
2023-01-28T12:21:30.129Z,23.62
2023-01-28T12:22:30.094Z,23.63
2023-01-28T12:23:30.035Z,23.65
2023-01-28T12:24:30.001Z,23.68
2023-01-28T12:25:29.944Z,23.67
2023-01-28T12:26:29.917Z,23.70
2023-01-28T12:27:29.860Z,23.70
2023-01-28T12:28:29.793Z,23.71
2023-01-28T12:29:29.775Z,23.72
2023-01-28T12:30:29.694Z,23.72
2023-01-28T12:31:29.807Z,23.75
2023-01-28T12:32:29.599Z,23.78
2023-01-28T12:33:29.555Z,23.79
2023-01-28T12:34:29.494Z,23.79
2023-01-28T12:35:29.469Z,23.77
2023-01-28T12:36:29.441Z,23.81
2023-01-28T12:37:29.373Z,23.82
2023-01-28T12:38:29.318Z,23.81
2023-01-28T12:39:29.300Z,23.82
2023-01-28T12:40:29.229Z,23.82
2023-01-28T12:41:29.231Z,23.77
2023-01-28T12:42:29.144Z,23.74
2023-01-28T12:43:29.115Z,23.71
2023-01-28T12:44:29.082Z,23.70
2023-01-28T12:45:29.043Z,23.74
2023-01-28T12:46:29.018Z,23.67
2023-01-28T12:47:28.953Z,23.61
2023-01-28T12:48:28.898Z,23.58
2023-01-28T12:49:28.955Z,23.53
2023-01-28T12:50:28.830Z,23.53
2023-01-28T12:51:28.775Z,23.49
2023-01-28T12:52:28.749Z,23.51
2023-01-28T12:53:28.703Z,23.52
2023-01-28T12:54:28.658Z,23.53
2023-01-28T12:55:28.631Z,23.56
2023-01-28T12:56:28.575Z,23.58
2023-01-28T12:57:28.541Z,23.61
2023-01-28T12:58:28.446Z,23.62
2023-01-28T12:59:28.393Z,23.63
2023-01-28T13:00:28.358Z,23.64
2023-01-28T13:01:28.310Z,23.67
2023-01-28T13:02:28.270Z,23.68
2023-01-28T13:03:28.210Z,23.68
2023-01-28T13:04:28.160Z,23.71
2023-01-28T13:05:28.116Z,23.71
2023-01-28T13:06:28.068Z,23.73
2023-01-28T13:07:28.029Z,23.73
2023-01-28T13:08:27.965Z,23.77
2023-01-28T13:09:27.941Z,23.77
2023-01-28T13:10:27.906Z,23.76
2023-01-28T13:11:27.850Z,23.75
2023-01-28T13:12:27.817Z,23.80
2023-01-28T13:13:27.778Z,23.80
2023-01-28T13:14:27.695Z,23.79
2023-01-28T13:15:27.646Z,23.84
2023-01-28T13:16:36.877Z,23.82
2023-01-28T13:17:28.563Z,23.83
2023-01-28T13:18:27.513Z,23.81
2023-01-28T13:19:27.488Z,23.81
2023-01-28T13:20:27.425Z,23.82
2023-01-28T13:21:29.048Z,23.83
2023-01-28T13:22:27.332Z,23.85
2023-01-28T13:23:27.281Z,23.84
2023-01-28T13:24:27.266Z,23.84
2023-01-28T13:25:27.208Z,23.86
2023-01-28T13:26:27.181Z,23.84
2023-01-28T13:27:27.134Z,23.85
2023-01-28T13:28:27.065Z,23.86
2023-01-28T13:29:27.029Z,23.85
2023-01-28T13:30:26.996Z,23.84
2023-01-28T13:31:26.977Z,23.87
2023-01-28T13:32:26.936Z,23.88
2023-01-28T13:33:26.869Z,23.85
2023-01-28T13:34:26.832Z,23.87
2023-01-28T13:35:26.788Z,23.89
2023-01-28T13:36:26.721Z,23.88
2023-01-28T13:37:26.717Z,23.88
2023-01-28T13:38:26.661Z,23.88
2023-01-28T13:39:26.635Z,23.91
2023-01-28T13:40:26.565Z,23.92
2023-01-28T13:41:26.540Z,23.89
2023-01-28T13:42:26.502Z,23.91
2023-01-28T13:43:26.453Z,23.94
2023-01-28T13:44:26.413Z,23.92
2023-01-28T13:45:26.333Z,23.93
2023-01-28T13:46:26.287Z,23.92
2023-01-28T13:47:26.257Z,23.93
2023-01-28T13:48:26.247Z,23.93
2023-01-28T13:49:26.282Z,23.93
2023-01-28T13:50:26.112Z,23.95
2023-01-28T13:51:26.087Z,23.95
2023-01-28T13:52:26.032Z,23.95
2023-01-28T13:53:26.004Z,23.96
2023-01-28T13:54:26.053Z,23.96
2023-01-28T13:55:41.697Z,23.97
2023-01-28T13:56:26.849Z,23.96
2023-01-28T13:57:25.817Z,23.95
2023-01-28T13:58:25.811Z,23.97
2023-01-28T13:59:25.713Z,23.96
2023-01-28T14:00:26.741Z,23.95
2023-01-28T14:01:25.709Z,23.96
2023-01-28T14:02:25.722Z,23.98
2023-01-28T14:03:25.590Z,23.97
2023-01-28T14:04:25.560Z,23.96
2023-01-28T14:05:25.495Z,23.97
2023-01-28T14:06:25.461Z,23.99
2023-01-28T14:07:25.536Z,23.98
2023-01-28T14:08:25.377Z,23.97
2023-01-28T14:09:25.468Z,23.98
2023-01-28T14:10:25.309Z,23.99
2023-01-28T14:11:25.273Z,23.99
2023-01-28T14:12:25.227Z,24.00
2023-01-28T14:13:25.206Z,24.01
2023-01-28T14:14:25.141Z,24.01
2023-01-28T14:15:25.090Z,24.00
2023-01-28T14:16:25.064Z,24.01
2023-01-28T14:17:25.045Z,24.01
2023-01-28T14:18:25.008Z,24.01
2023-01-28T14:19:24.963Z,24.02
2023-01-28T14:20:26.384Z,24.03
2023-01-28T14:22:24.829Z,24.07
2023-01-28T14:23:24.826Z,24.05
2023-01-28T14:24:24.774Z,24.06
2023-01-28T14:25:24.763Z,24.05
2023-01-28T14:26:24.704Z,24.04
2023-01-28T16:22:20.906Z,24.38
2023-01-28T16:23:20.863Z,24.38
2023-01-28T16:24:20.961Z,24.37
2023-01-28T16:25:20.843Z,24.39
2023-01-28T16:26:20.810Z,24.40
2023-01-28T16:27:20.763Z,24.39
2023-01-28T16:28:20.750Z,24.41
2023-01-28T16:29:20.694Z,24.41
2023-01-28T16:30:20.685Z,24.41
2023-01-28T16:31:20.717Z,24.43
2023-01-28T16:32:20.616Z,24.42
2023-01-28T16:33:20.589Z,24.42
2023-01-28T16:34:20.581Z,24.41
2023-01-28T16:35:20.541Z,24.40
2023-01-28T16:36:20.494Z,24.41
2023-01-28T16:37:20.436Z,24.42
2023-01-28T16:38:20.473Z,24.45
2023-01-28T16:39:20.393Z,24.43
2023-01-28T16:40:20.375Z,24.45
2023-01-28T16:41:20.306Z,24.46
2023-01-28T16:42:20.272Z,24.44
2023-01-28T16:43:20.234Z,24.45
2023-01-28T16:44:20.225Z,24.47
2023-01-28T16:45:20.193Z,24.47
2023-01-28T16:46:20.211Z,24.46
2023-01-28T16:47:20.095Z,24.47
2023-01-28T16:48:20.069Z,24.48
2023-01-28T16:49:20.041Z,24.48
2023-01-28T16:50:20.036Z,24.48
2023-01-28T16:51:19.967Z,24.47
2023-01-28T16:52:19.940Z,24.47
2023-01-28T16:53:19.886Z,24.48
2023-01-28T16:54:19.872Z,24.48
2023-01-28T16:55:19.818Z,24.48
2023-01-28T16:56:30.404Z,24.49
2023-01-28T16:58:19.721Z,24.49
2023-01-28T16:59:19.729Z,24.48
2023-01-28T17:00:19.673Z,24.48
2023-01-28T17:01:19.663Z,24.49
2023-01-28T17:02:19.630Z,24.47
2023-01-28T17:03:19.563Z,24.49
2023-01-28T17:04:19.573Z,24.49
2023-01-28T17:05:19.647Z,24.48
2023-01-28T17:06:19.475Z,24.50
2023-01-28T17:07:19.439Z,24.49
2023-01-28T17:08:19.394Z,24.53
2023-01-28T17:09:19.374Z,24.50
2023-01-28T17:10:19.322Z,24.51
2023-01-28T17:11:19.329Z,24.50
2023-01-28T17:12:19.274Z,24.52
2023-01-28T17:13:19.225Z,24.52
2023-01-28T17:14:19.198Z,24.52
2023-01-28T18:33:16.552Z,24.76
2023-01-28T18:34:16.530Z,24.76
2023-01-28T18:35:16.699Z,24.76
2023-01-28T18:36:16.469Z,24.77
2023-01-28T18:37:16.451Z,24.78
2023-01-28T18:38:16.431Z,24.78
2023-01-28T18:39:16.420Z,24.75
2023-01-28T18:40:16.361Z,24.77
2023-01-28T18:41:16.337Z,24.78
2023-01-28T18:42:16.349Z,24.76
2023-01-28T18:43:16.265Z,24.80
2023-01-28T18:44:16.216Z,24.79
2023-01-28T18:45:16.570Z,24.80
2023-01-28T18:46:16.179Z,24.80
2023-01-28T18:47:16.157Z,24.80
2023-01-28T18:48:16.117Z,24.79
2023-01-28T18:49:16.069Z,24.81
2023-01-28T18:50:16.045Z,24.83
2023-01-28T18:51:28.957Z,24.81
2023-01-28T18:53:15.947Z,24.81
2023-01-28T18:54:15.917Z,24.82
2023-01-28T18:55:16.374Z,24.81
2023-01-28T18:56:15.860Z,24.83
2023-01-28T18:57:15.861Z,24.81
2023-01-28T18:58:15.809Z,24.81
2023-01-28T18:59:15.769Z,24.84
2023-01-28T19:00:15.734Z,24.83
2023-01-28T19:01:15.784Z,24.83
2023-01-28T19:02:15.731Z,24.83
2023-01-28T19:03:15.645Z,24.82
2023-01-28T19:04:15.629Z,24.85
2023-01-28T19:05:15.805Z,24.84
2023-01-28T19:06:15.547Z,24.85
2023-01-28T19:07:15.791Z,24.85
2023-01-28T19:08:15.505Z,24.85
2023-01-28T19:09:15.475Z,24.86
2023-01-28T19:10:15.425Z,24.87
2023-01-28T19:11:15.397Z,24.86
2023-01-28T19:12:15.406Z,24.87
2023-01-28T19:13:15.376Z,24.88
2023-01-28T19:14:15.399Z,24.87
2023-01-28T19:15:15.610Z,24.89
2023-01-28T19:16:15.347Z,24.87
2023-01-28T19:17:15.233Z,24.89
2023-01-28T19:18:15.240Z,24.88
2023-01-28T19:19:15.165Z,24.89
2023-01-28T19:20:15.155Z,24.89
2023-01-28T19:21:15.106Z,24.89
2023-01-28T19:22:15.098Z,24.91
2023-01-28T19:23:15.085Z,24.88
2023-01-28T19:24:15.145Z,24.88
2023-01-28T19:25:15.319Z,24.89
2023-01-28T19:26:14.968Z,24.90
2023-01-28T19:27:14.937Z,24.90
2023-01-28T19:28:14.941Z,24.90
2023-01-28T19:29:15.917Z,24.93
2023-01-28T19:30:14.853Z,24.93
2023-01-28T19:31:14.944Z,24.91
2023-01-28T19:32:14.815Z,24.92
2023-01-28T19:33:14.789Z,24.91
2023-01-28T19:34:14.751Z,24.93
2023-01-28T19:35:15.100Z,24.93
2023-01-28T19:36:14.683Z,24.94
2023-01-28T21:52:10.935Z,25.29
2023-01-28T21:53:10.915Z,25.31
2023-01-28T21:54:10.878Z,25.27
2023-01-28T21:55:10.852Z,25.28
2023-01-28T21:56:10.828Z,25.29
2023-01-28T21:57:10.804Z,25.29
2023-01-28T21:58:10.783Z,25.30
2023-01-28T21:59:10.753Z,25.30
2023-01-28T22:00:10.724Z,25.31
2023-01-28T22:01:10.692Z,25.30
2023-01-28T22:02:10.646Z,25.33
2023-01-28T22:03:10.711Z,25.30
2023-01-28T22:04:10.629Z,25.31
2023-01-28T22:05:10.590Z,25.33
2023-01-28T22:06:10.547Z,25.31
2023-01-28T22:07:10.539Z,25.31
2023-01-28T22:08:10.510Z,25.33
2023-01-28T22:09:10.472Z,25.35
2023-01-28T22:10:10.484Z,25.32
2023-01-28T22:11:10.430Z,25.35
2023-01-28T22:12:10.390Z,25.34
2023-01-28T22:13:10.371Z,25.33
2023-01-28T22:14:10.361Z,25.33
2023-01-28T22:15:10.325Z,25.33
2023-01-28T22:16:10.325Z,25.32
2023-01-28T22:17:10.314Z,25.35
2023-01-28T22:18:10.241Z,25.33
2023-01-28T22:19:10.223Z,25.35
2023-01-28T22:20:10.222Z,25.36
2023-01-28T22:21:10.190Z,25.36
2023-01-28T22:22:10.122Z,25.35
2023-01-28T22:23:10.142Z,25.37
2023-01-28T22:24:10.135Z,25.36
2023-01-28T22:25:10.064Z,25.35
2023-01-28T22:26:10.025Z,25.36
2023-01-28T22:27:10.039Z,25.38
2023-01-28T22:28:09.977Z,25.36
2023-01-28T22:29:09.958Z,25.36
2023-01-28T22:30:09.967Z,25.35
2023-01-28T22:31:09.985Z,25.35
2023-01-28T22:32:09.871Z,25.37
2023-01-28T22:33:09.870Z,25.37
2023-01-28T22:34:09.791Z,25.36
2023-01-28T22:35:09.820Z,25.37
2023-01-28T22:36:09.742Z,25.36
2023-01-28T22:37:09.723Z,25.40
2023-01-28T22:38:09.688Z,25.35
2023-01-28T22:39:09.644Z,25.37
2023-01-28T22:40:09.626Z,25.38
2023-01-28T22:41:09.623Z,25.38
2023-01-28T22:42:09.588Z,25.38
2023-01-28T22:43:09.538Z,25.37
2023-01-28T22:44:09.504Z,25.38
2023-01-28T22:45:09.473Z,25.39
2023-01-28T22:46:09.495Z,25.37
2023-01-28T22:47:09.409Z,25.39
2023-01-28T22:48:09.386Z,25.40
2023-01-28T22:49:09.350Z,25.39
2023-01-28T22:50:09.319Z,25.39
2023-01-28T22:51:09.305Z,25.41
2023-01-28T22:52:09.268Z,25.38
2023-01-28T22:53:09.240Z,25.40
2023-01-28T22:54:09.220Z,25.40
2023-01-28T22:55:09.185Z,25.41
2023-01-28T22:56:10.138Z,25.40
2023-01-28T22:57:09.149Z,25.39
2023-01-28T22:58:09.110Z,25.41
2023-01-28T22:59:09.068Z,25.40
2023-01-28T23:00:09.049Z,25.41
2023-01-28T23:01:09.036Z,25.41
2023-01-28T23:02:09.002Z,25.40
2023-01-28T23:03:09.033Z,25.41
2023-01-28T23:04:08.964Z,25.41
2023-01-28T23:05:08.939Z,25.41
2023-01-28T23:06:08.895Z,25.41
2023-01-28T23:07:08.853Z,25.43
2023-01-28T23:08:08.861Z,25.41
2023-01-28T23:09:08.823Z,25.41
2023-01-28T23:10:08.781Z,25.42
2023-01-28T23:11:08.783Z,25.42
2023-01-28T23:12:08.740Z,25.42
2023-01-28T23:13:08.697Z,25.42
2023-01-28T23:14:08.667Z,25.43
2023-01-28T23:15:08.657Z,25.42
2023-01-28T23:16:08.663Z,25.44
2023-01-28T23:17:08.602Z,25.42
2023-01-28T23:18:08.559Z,25.42
2023-01-28T23:19:08.554Z,25.43
2023-01-28T23:20:08.519Z,25.41
2023-01-28T23:21:08.634Z,25.43
2023-01-28T23:22:08.433Z,25.44
2023-01-28T23:23:08.394Z,25.43
2023-01-28T23:24:08.408Z,25.43
2023-01-28T23:25:08.348Z,25.44
2023-01-28T23:26:08.334Z,25.45
2023-01-28T23:27:08.295Z,25.45
2023-01-28T23:28:08.259Z,25.46
2023-01-28T23:29:08.211Z,25.45
2023-01-28T23:30:08.217Z,25.45
2023-01-28T23:31:08.279Z,25.47
2023-01-28T23:32:08.150Z,25.46
2023-01-28T23:33:08.127Z,25.44
2023-01-28T23:34:08.096Z,25.47
2023-01-28T23:35:08.062Z,25.46
2023-01-28T23:36:08.099Z,25.46
2023-01-28T23:37:08.024Z,25.48
2023-01-28T23:38:08.001Z,25.46
2023-01-28T23:39:07.959Z,25.47
2023-01-28T23:40:07.947Z,25.47
2023-01-28T23:41:07.946Z,25.46
2023-01-28T23:42:07.898Z,25.47
2023-01-28T23:43:07.878Z,25.46
2023-01-28T23:44:07.835Z,25.46
2023-01-28T23:45:07.802Z,25.48
2023-01-28T23:46:07.771Z,25.47
2023-01-28T23:47:07.767Z,25.48
2023-01-28T23:48:07.727Z,25.45
2023-01-28T23:49:07.689Z,25.47
2023-01-28T23:50:07.651Z,25.48
2023-01-28T23:51:07.648Z,25.47
2023-01-28T23:52:07.610Z,25.48
2023-01-28T23:53:07.579Z,25.49
2023-01-28T23:54:07.571Z,25.47
2023-01-28T23:55:07.557Z,25.48
2023-01-28T23:56:07.566Z,25.50
2023-01-28T23:57:07.504Z,25.50
2023-01-28T23:58:07.469Z,25.49
2023-01-28T23:59:07.441Z,25.50
